createdAt,value
2018-05-04T00:00:00.200Z,61.00
2018-05-04T00:02:26.745Z,61.02
2018-05-04T00:04:53.341Z,60.63
2018-05-04T00:07:19.822Z,60.62
2018-05-04T00:09:46.299Z,60.98
2018-05-04T00:12:12.840Z,60.78
2018-05-04T00:14:39.352Z,60.99
2018-05-04T00:17:05.952Z,60.70
2018-05-04T00:19:32.480Z,60.60
2018-05-04T00:21:58.953Z,60.31
2018-05-04T00:24:25.465Z,60.26
2018-05-04T00:26:52.005Z,60.13
2018-05-04T00:29:18.489Z,60.10
2018-05-04T00:31:45.016Z,60.18
2018-05-04T00:34:11.458Z,59.87
2018-05-04T00:36:37.920Z,60.11
2018-05-04T00:39:04.505Z,60.07
2018-05-04T00:41:31.113Z,60.36
2018-05-04T00:43:57.516Z,60.22
2018-05-04T00:46:24.033Z,60.14
2018-05-04T00:48:50.649Z,60.42
2018-05-04T00:51:17.140Z,60.35
2018-05-04T00:53:55.796Z,60.66
2018-05-04T00:56:22.417Z,60.59
2018-05-04T00:58:49.037Z,61.07
2018-05-04T01:01:15.537Z,60.72
2018-05-04T01:03:42.041Z,60.69
2018-05-04T01:06:08.548Z,60.68
2018-05-04T01:08:34.967Z,60.70
2018-05-04T01:11:01.606Z,60.55
2018-05-04T01:13:27.992Z,60.50
2018-05-04T01:15:54.474Z,60.54
2018-05-04T01:18:20.927Z,60.38
2018-05-04T01:20:47.443Z,60.44
2018-05-04T01:23:13.936Z,60.09
2018-05-04T01:25:40.472Z,60.31
2018-05-04T01:28:07.053Z,60.27
2018-05-04T01:30:33.485Z,60.56
2018-05-04T01:32:59.936Z,60.53
2018-05-04T01:35:26.389Z,60.41
2018-05-04T01:37:53.050Z,60.38
2018-05-04T01:40:19.560Z,60.17
2018-05-04T01:42:46.044Z,60.45
2018-05-04T01:45:12.559Z,60.50
2018-05-04T01:47:39.132Z,60.55
2018-05-04T01:50:05.701Z,60.52
2018-05-04T01:52:32.173Z,60.52
2018-05-04T01:54:58.816Z,60.55
2018-05-04T01:57:25.221Z,60.60
2018-05-04T01:59:51.608Z,60.61
2018-05-04T02:02:18.224Z,60.38
2018-05-04T02:04:44.743Z,60.49
2018-05-04T02:07:11.251Z,60.60
2018-05-04T02:09:37.788Z,60.44
2018-05-04T02:12:04.347Z,60.62
2018-05-04T02:14:30.852Z,60.60
2018-05-04T02:16:57.362Z,60.53
2018-05-04T02:19:23.848Z,60.69
2018-05-04T02:21:50.336Z,60.41
2018-05-04T02:24:16.791Z,60.44
2018-05-04T02:26:43.335Z,60.66
2018-05-04T02:29:09.909Z,60.45
2018-05-04T02:31:36.261Z,60.35
2018-05-04T02:34:02.783Z,60.36
2018-05-04T02:36:29.359Z,60.45
2018-05-04T02:38:55.875Z,60.40
2018-05-04T02:41:22.332Z,60.62
2018-05-04T02:43:48.765Z,60.41
2018-05-04T02:46:15.293Z,60.34
2018-05-04T02:48:41.838Z,60.34
2018-05-04T02:51:08.364Z,60.30
2018-05-04T02:53:34.874Z,60.16
2018-05-04T02:56:01.441Z,60.15
2018-05-04T02:58:27.889Z,60.15
2018-05-04T03:00:54.356Z,60.22
2018-05-04T03:03:20.947Z,60.34
2018-05-04T03:05:47.398Z,60.18
2018-05-04T03:08:13.875Z,60.13
2018-05-04T03:10:40.455Z,60.18
2018-05-04T03:13:07.004Z,60.20
2018-05-04T03:15:33.453Z,60.22
2018-05-04T03:17:59.997Z,60.25
2018-05-04T03:20:26.595Z,60.17
2018-05-04T03:22:53.064Z,60.32
2018-05-04T03:25:19.585Z,60.96
2018-05-04T03:27:46.226Z,61.63
2018-05-04T03:30:12.733Z,61.87
2018-05-04T03:32:39.328Z,62.26
2018-05-04T03:35:05.757Z,62.92
2018-05-04T03:37:32.220Z,62.93
2018-05-04T03:39:58.789Z,62.78
2018-05-04T03:42:25.213Z,62.87
2018-05-04T03:44:51.680Z,62.80
2018-05-04T03:47:19.045Z,62.62
2018-05-04T03:49:45.554Z,62.86
2018-05-04T03:52:12.137Z,62.76
2018-05-04T03:54:38.646Z,62.59
2018-05-04T03:57:17.209Z,62.44
2018-05-04T03:59:55.914Z,62.29
2018-05-04T04:02:34.540Z,62.47
2018-05-04T04:05:00.780Z,62.23
2018-05-04T04:07:27.316Z,62.25
2018-05-04T04:09:53.797Z,61.94
2018-05-04T04:12:20.458Z,62.09
2018-05-04T04:14:47.101Z,62.32
2018-05-04T04:17:13.564Z,62.30
2018-05-04T04:19:39.947Z,62.39
2018-05-04T04:22:06.391Z,62.72
2018-05-04T04:24:32.876Z,62.96
2018-05-04T04:26:59.394Z,62.82
2018-05-04T04:29:25.858Z,62.63
2018-05-04T04:31:52.363Z,62.81
2018-05-04T04:34:19.009Z,62.60
2018-05-04T04:36:45.476Z,62.72
2018-05-04T04:39:12.013Z,62.93
2018-05-04T04:41:38.524Z,62.79
2018-05-04T04:44:05.009Z,63.01
2018-05-04T04:46:31.512Z,62.86
2018-05-04T04:48:58.025Z,62.57
2018-05-04T04:51:24.518Z,62.47
2018-05-04T04:53:51.042Z,62.28
2018-05-04T04:56:17.540Z,62.70
2018-05-04T04:58:44.021Z,62.50
2018-05-04T05:01:10.592Z,62.42
2018-05-04T05:03:37.070Z,62.50
2018-05-04T05:06:04.164Z,62.42
2018-05-04T05:08:30.890Z,62.85
2018-05-04T05:10:57.884Z,62.69
2018-05-04T05:13:24.892Z,62.38
2018-05-04T05:15:52.509Z,62.36
2018-05-04T05:18:19.184Z,62.26
2018-05-04T05:20:45.632Z,62.20
2018-05-04T05:23:12.143Z,62.11
2018-05-04T05:25:38.592Z,61.72
2018-05-04T05:28:05.085Z,61.78
2018-05-04T05:30:31.745Z,61.88
2018-05-04T05:32:58.234Z,61.80
2018-05-04T05:35:24.786Z,61.70
2018-05-04T05:37:51.465Z,61.68
2018-05-04T05:40:17.929Z,61.89
2018-05-04T05:42:44.438Z,61.93
2018-05-04T05:45:10.819Z,61.50
2018-05-04T05:47:37.408Z,61.71
2018-05-04T05:50:04.022Z,61.58
2018-05-04T05:52:30.597Z,61.43
2018-05-04T05:54:57.084Z,61.21
2018-05-04T05:57:23.628Z,61.21
2018-05-04T05:59:50.218Z,60.61
2018-05-04T06:02:16.662Z,60.62
2018-05-04T06:04:43.143Z,60.49
2018-05-04T06:07:09.610Z,59.93
2018-05-04T06:09:36.133Z,58.78
2018-05-04T06:12:02.753Z,59.08
2018-05-04T06:14:29.244Z,58.92
2018-05-04T06:16:55.608Z,58.89
2018-05-04T06:19:22.048Z,58.70
2018-05-04T06:21:48.564Z,59.17
2018-05-04T06:24:15.076Z,58.97
2018-05-04T06:26:41.561Z,58.55
2018-05-04T06:29:08.031Z,58.58
2018-05-04T06:31:34.602Z,58.27
2018-05-04T06:34:01.111Z,58.26
2018-05-04T06:36:27.520Z,58.77
2018-05-04T06:38:54.050Z,57.83
2018-05-04T06:41:20.569Z,57.75
2018-05-04T06:43:47.103Z,57.92
2018-05-04T06:46:13.699Z,57.58
2018-05-04T06:48:40.192Z,57.10
2018-05-04T06:51:06.903Z,56.94
2018-05-04T06:53:33.564Z,56.57
2018-05-04T06:56:00.086Z,55.73
2018-05-04T06:58:27.068Z,55.60
2018-05-04T07:00:53.592Z,55.14
2018-05-04T07:03:20.126Z,55.45
2018-05-04T07:05:46.579Z,55.27
2018-05-04T07:08:13.138Z,55.85
2018-05-04T07:10:39.699Z,55.50
2018-05-04T07:13:06.200Z,55.41
2018-05-04T07:15:32.730Z,55.61
2018-05-04T07:17:59.265Z,55.64
2018-05-04T07:20:25.746Z,55.74
2018-05-04T07:22:52.246Z,55.55
2018-05-04T07:25:18.608Z,55.47
2018-05-04T07:27:45.117Z,55.38
2018-05-04T07:30:11.564Z,54.83
2018-05-04T07:32:37.978Z,55.47
2018-05-04T07:35:04.366Z,55.10
2018-05-04T07:37:30.906Z,54.88
2018-05-04T07:39:57.496Z,53.86
2018-05-04T07:42:24.028Z,53.64
2018-05-04T07:44:50.548Z,53.25
2018-05-04T07:47:17.140Z,53.84
2018-05-04T07:49:43.736Z,54.35
2018-05-04T07:52:10.209Z,54.38
2018-05-04T07:54:36.655Z,54.83
2018-05-04T07:57:03.060Z,55.35
2018-05-04T07:59:29.501Z,54.95
2018-05-04T08:01:55.904Z,56.46
2018-05-04T08:04:22.277Z,54.58
2018-05-04T08:06:48.698Z,54.43
2018-05-04T08:09:15.066Z,54.58
2018-05-04T08:11:41.447Z,53.63
2018-05-04T08:14:07.852Z,55.17
2018-05-04T08:16:34.276Z,55.58
2018-05-04T08:19:00.613Z,53.05
2018-05-04T08:21:27.017Z,53.48
2018-05-04T08:23:53.377Z,51.52
2018-05-04T08:26:19.836Z,51.33
2018-05-04T08:35:08.148Z,51.91
2018-05-04T08:37:34.615Z,52.08
2018-05-04T08:40:01.031Z,51.75
2018-05-04T08:42:27.479Z,51.06
2018-05-04T08:44:53.962Z,51.21
2018-05-04T08:47:20.561Z,51.86
2018-05-04T08:49:47.069Z,51.02
2018-05-04T08:52:13.592Z,51.05
2018-05-04T09:00:12.235Z,50.95
2018-05-04T09:02:38.703Z,49.44
2018-05-04T09:05:05.260Z,50.98
2018-05-04T09:07:31.669Z,49.16
2018-05-04T09:09:58.126Z,50.13
2018-05-04T09:12:24.729Z,49.23
2018-05-04T09:14:51.221Z,50.15
2018-05-04T09:17:17.616Z,49.98
2018-05-04T09:19:44.295Z,53.58
2018-05-04T09:22:10.856Z,49.22
2018-05-04T09:24:37.484Z,49.23
2018-05-04T09:27:03.897Z,50.28
2018-05-04T09:29:30.263Z,48.61
2018-05-04T09:31:56.661Z,48.13
2018-05-04T09:34:23.145Z,48.57
2018-05-04T09:36:49.568Z,48.14
2018-05-04T09:39:16.038Z,48.39
2018-05-04T09:41:42.618Z,47.26
2018-05-04T09:44:09.124Z,46.56
2018-05-04T09:46:35.588Z,47.57
2018-05-04T09:49:02.040Z,44.89
2018-05-04T09:51:28.548Z,45.65
2018-05-04T09:53:55.094Z,44.66
2018-05-04T09:56:21.521Z,43.91
2018-05-04T09:58:48.020Z,43.32
2018-05-04T10:01:14.585Z,44.28
2018-05-04T10:03:40.949Z,44.31
2018-05-04T10:06:07.411Z,44.30
2018-05-04T10:08:33.912Z,44.32
2018-05-04T10:11:00.471Z,43.76
2018-05-04T10:13:26.929Z,44.10
2018-05-04T10:15:53.384Z,44.50
2018-05-04T10:18:19.728Z,44.33
2018-05-04T10:20:46.112Z,44.82
2018-05-04T10:23:12.531Z,46.32
2018-05-04T10:25:38.948Z,44.07
2018-05-04T10:28:05.400Z,43.45
2018-05-04T10:30:31.901Z,44.26
2018-05-04T10:32:58.356Z,43.96
2018-05-04T10:35:24.832Z,43.67
2018-05-04T10:37:51.302Z,43.53
2018-05-04T10:40:17.737Z,42.78
2018-05-04T10:42:44.213Z,43.51
2018-05-04T10:45:10.642Z,42.97
2018-05-04T10:47:37.043Z,43.32
2018-05-04T10:50:03.581Z,43.56
2018-05-04T10:52:30.016Z,42.75
2018-05-04T10:54:56.497Z,42.57
2018-05-04T10:57:23.284Z,43.05
2018-05-04T10:59:49.800Z,43.32
2018-05-04T11:02:16.279Z,42.25
2018-05-04T11:04:42.836Z,42.74
2018-05-04T11:07:09.368Z,42.45
2018-05-04T11:09:35.933Z,41.61
2018-05-04T11:12:02.421Z,41.74
2018-05-04T11:14:28.927Z,42.47
2018-05-04T11:16:55.457Z,43.36
2018-05-04T11:19:22.035Z,41.78
2018-05-04T11:21:48.508Z,43.92
2018-05-04T11:24:15.049Z,43.20
2018-05-04T11:29:12.799Z,41.63
2018-05-04T11:31:39.312Z,40.55
2018-05-04T11:34:05.808Z,40.92
2018-05-04T11:36:32.292Z,41.28
2018-05-04T11:38:58.849Z,40.27
2018-05-04T11:41:25.321Z,45.23
2018-05-04T11:43:51.877Z,46.28
2018-05-04T11:46:18.316Z,48.50
2018-05-04T11:48:44.748Z,44.42
2018-05-04T11:51:11.340Z,41.04
2018-05-04T11:53:38.424Z,45.74
2018-05-04T11:56:04.912Z,39.02
2018-05-04T11:58:31.878Z,46.47
2018-05-04T12:00:58.340Z,42.88
2018-05-04T12:03:24.811Z,41.35
2018-05-04T12:05:51.406Z,42.55
2018-05-04T12:08:18.032Z,42.57
2018-05-04T12:10:44.540Z,43.09
2018-05-04T12:13:11.128Z,45.52
2018-05-04T12:15:37.774Z,43.78
2018-05-04T12:18:04.362Z,40.02
2018-05-04T12:20:30.900Z,43.00
2018-05-04T12:22:57.677Z,43.38
2018-05-04T12:25:24.320Z,45.66
2018-05-04T12:27:50.709Z,42.36
2018-05-04T12:30:17.220Z,41.22
2018-05-04T12:32:43.704Z,45.22
2018-05-04T12:35:10.116Z,46.67
2018-05-04T12:37:36.565Z,40.61
2018-05-04T12:40:03.096Z,41.29
2018-05-04T12:42:29.512Z,40.94
2018-05-04T12:44:56.060Z,42.56
2018-05-04T12:47:22.564Z,43.83
2018-05-04T12:49:49.117Z,40.44
2018-05-04T12:52:15.565Z,39.68
2018-05-04T12:54:42.216Z,44.69
2018-05-04T12:57:08.646Z,40.23
2018-05-04T12:59:35.336Z,41.27
2018-05-04T13:02:01.827Z,40.27
2018-05-04T13:04:28.341Z,44.65
2018-05-04T13:06:55.241Z,49.20
2018-05-04T13:09:21.984Z,46.18
2018-05-04T13:11:48.375Z,49.74
2018-05-04T13:14:14.841Z,52.72
2018-05-04T13:16:41.309Z,41.14
2018-05-04T13:19:07.881Z,49.25
2018-05-04T13:21:34.406Z,47.63
2018-05-04T13:24:01.022Z,44.38
2018-05-04T13:26:27.590Z,47.69
2018-05-04T13:28:54.157Z,43.41
2018-05-04T13:31:20.601Z,44.36
2018-05-04T13:33:47.071Z,48.91
2018-05-04T13:36:13.619Z,46.38
2018-05-04T13:38:40.037Z,45.80
2018-05-04T13:41:06.542Z,46.67
2018-05-04T13:43:33.197Z,52.60
2018-05-04T13:45:59.689Z,58.97
2018-05-04T13:48:26.252Z,48.63
2018-05-04T13:50:52.808Z,57.92
2018-05-04T13:53:19.231Z,54.20
2018-05-04T13:55:50.644Z,53.11
2018-05-04T13:58:17.154Z,47.16
2018-05-04T14:00:47.419Z,54.38
2018-05-04T14:03:14.059Z,49.43
2018-05-04T14:05:40.564Z,50.90
2018-05-04T14:08:07.019Z,51.34
2018-05-04T14:10:33.481Z,56.15
2018-05-04T14:13:00.054Z,46.77
2018-05-04T14:15:26.484Z,49.05
2018-05-04T14:17:53.044Z,49.86
2018-05-04T14:20:19.594Z,54.80
2018-05-04T14:22:46.045Z,52.75
2018-05-04T14:25:12.580Z,53.06
2018-05-04T14:27:39.184Z,56.77
2018-05-04T14:30:05.798Z,54.32
2018-05-04T14:32:32.309Z,54.10
2018-05-04T14:34:58.893Z,58.00
2018-05-04T14:37:26.170Z,55.92
2018-05-04T14:39:52.685Z,51.61
2018-05-04T14:42:19.192Z,49.80
2018-05-04T14:44:45.715Z,51.68
2018-05-04T14:47:12.313Z,52.62
2018-05-04T14:49:38.796Z,48.60
2018-05-04T14:52:05.353Z,50.86
2018-05-04T14:54:31.782Z,50.61
2018-05-04T14:56:58.241Z,50.58
2018-05-04T14:59:24.871Z,48.81
2018-05-04T15:01:51.539Z,52.41
2018-05-04T15:04:18.237Z,50.47
2018-05-04T15:06:44.720Z,46.68
2018-05-04T15:09:11.254Z,49.10
2018-05-04T15:11:37.845Z,43.00
2018-05-04T15:14:04.394Z,42.54
2018-05-04T15:16:30.924Z,42.29
2018-05-04T15:18:57.420Z,42.13
2018-05-04T15:21:23.932Z,41.26
2018-05-04T15:23:50.372Z,42.81
2018-05-04T15:26:16.959Z,40.69
2018-05-04T15:28:43.421Z,41.49
2018-05-04T15:31:09.910Z,45.63
2018-05-04T15:33:36.420Z,41.47
2018-05-04T15:36:02.932Z,47.08
2018-05-04T15:38:29.518Z,45.74
2018-05-04T15:40:56.277Z,45.82
2018-05-04T15:43:22.783Z,39.49
2018-05-04T15:45:49.240Z,47.41
2018-05-04T15:48:21.944Z,38.45
2018-05-04T15:50:54.657Z,46.29
2018-05-04T15:53:21.212Z,40.25
2018-05-04T15:55:47.702Z,39.17
2018-05-04T15:58:14.345Z,44.33
2018-05-04T16:00:40.980Z,40.22
2018-05-04T16:03:07.645Z,40.99
2018-05-04T16:05:34.196Z,45.65
2018-05-04T16:08:00.789Z,44.64
2018-05-04T16:10:27.455Z,41.80
2018-05-04T16:12:54.027Z,45.75
2018-05-04T16:15:20.508Z,45.47
2018-05-04T16:17:47.202Z,42.37
2018-05-04T16:20:13.711Z,40.98
2018-05-04T16:22:40.328Z,38.14
2018-05-04T16:25:06.904Z,37.07
2018-05-04T16:27:33.669Z,37.91
2018-05-04T16:30:00.372Z,41.96
2018-05-04T16:32:26.833Z,43.40
2018-05-04T16:34:53.304Z,42.46
2018-05-04T16:37:19.757Z,42.87
2018-05-04T16:39:46.277Z,44.14
2018-05-04T16:42:12.798Z,44.06
2018-05-04T16:44:39.168Z,44.68
2018-05-04T16:47:11.708Z,44.71
2018-05-04T16:49:38.245Z,43.28
2018-05-04T16:52:04.699Z,47.34
2018-05-04T16:54:31.205Z,48.84
2018-05-04T16:56:57.719Z,49.85
2018-05-04T16:59:24.353Z,49.91
2018-05-04T17:01:51.287Z,46.56
2018-05-04T17:04:17.801Z,47.22
2018-05-04T17:06:44.242Z,50.52
2018-05-04T17:09:11.198Z,47.03
2018-05-04T17:11:37.689Z,47.32
2018-05-04T17:14:04.265Z,45.98
2018-05-04T17:16:31.052Z,46.54
2018-05-04T17:18:57.506Z,47.59
2018-05-04T17:21:24.077Z,45.68
2018-05-04T17:23:50.744Z,45.80
2018-05-04T17:26:17.332Z,46.88
2018-05-04T17:28:43.739Z,44.70
2018-05-04T17:31:10.304Z,45.31
2018-05-04T17:33:36.836Z,44.86
2018-05-04T17:36:03.317Z,46.44
2018-05-04T17:38:30.017Z,44.10
2018-05-04T17:40:56.444Z,45.36
2018-05-04T17:43:23.017Z,44.90
2018-05-04T17:45:49.577Z,45.20
2018-05-04T17:48:16.167Z,46.26
2018-05-04T17:50:43.450Z,46.67
2018-05-04T17:53:09.859Z,46.28
2018-05-04T17:55:36.525Z,45.89
2018-05-04T17:58:03.025Z,45.89
2018-05-04T18:00:29.512Z,45.77
2018-05-04T18:02:56.644Z,45.41
2018-05-04T18:05:23.210Z,45.96
2018-05-04T18:07:49.771Z,45.37
2018-05-04T18:10:16.363Z,47.20
2018-05-04T18:12:43.026Z,46.42
2018-05-04T18:15:09.515Z,46.80
2018-05-04T18:17:36.008Z,46.87
2018-05-04T18:20:02.767Z,48.69
2018-05-04T18:22:29.404Z,46.30
2018-05-04T18:24:55.965Z,45.43
2018-05-04T18:27:22.410Z,46.17
2018-05-04T18:29:48.955Z,45.92
2018-05-04T18:32:15.367Z,46.39
2018-05-04T18:34:41.779Z,45.97
2018-05-04T18:37:08.344Z,44.31
2018-05-04T18:39:34.920Z,45.63
2018-05-04T18:42:01.646Z,44.16
2018-05-04T18:44:28.060Z,46.71
2018-05-04T18:46:54.527Z,47.22
2018-05-04T18:49:21.161Z,46.78
2018-05-04T18:51:47.828Z,44.21
2018-05-04T18:54:14.268Z,45.02
2018-05-04T18:56:40.723Z,46.42
2018-05-04T18:59:07.208Z,46.61
2018-05-04T19:01:33.723Z,46.86
2018-05-04T19:04:00.187Z,46.48
2018-05-04T19:06:26.837Z,46.77
2018-05-04T19:08:53.485Z,45.82
2018-05-04T19:11:20.036Z,45.79
2018-05-04T19:13:46.621Z,46.30
2018-05-04T19:16:13.009Z,45.18
2018-05-04T19:18:39.617Z,46.76
2018-05-04T19:21:06.253Z,46.33
2018-05-04T19:23:32.727Z,44.60
2018-05-04T19:25:59.173Z,44.47
2018-05-04T19:28:25.725Z,43.79
2018-05-04T19:30:52.149Z,46.41
2018-05-04T19:33:18.633Z,43.58
2018-05-04T19:35:45.231Z,43.50
2018-05-04T19:38:11.792Z,46.76
2018-05-04T19:40:38.221Z,44.57
2018-05-04T19:43:04.664Z,44.87
2018-05-04T19:45:31.173Z,47.67
2018-05-04T19:47:57.622Z,46.35
2018-05-04T19:50:24.194Z,45.00
2018-05-04T19:52:50.676Z,45.83
2018-05-04T19:55:17.169Z,45.70
2018-05-04T19:57:43.711Z,45.78
2018-05-04T20:00:10.161Z,46.19
2018-05-04T20:02:36.656Z,46.56
2018-05-04T20:05:03.208Z,44.85
2018-05-04T20:07:29.749Z,43.41
2018-05-04T20:09:56.244Z,43.09
2018-05-04T20:12:22.768Z,43.56
2018-05-04T20:14:49.265Z,43.39
2018-05-04T20:17:15.853Z,42.87
2018-05-04T20:19:42.232Z,43.04
2018-05-04T20:22:08.804Z,43.18
2018-05-04T20:24:35.293Z,43.22
2018-05-04T20:27:01.820Z,43.00
2018-05-04T20:29:28.329Z,42.86
2018-05-04T20:31:54.790Z,42.73
2018-05-04T20:34:22.345Z,42.92
2018-05-04T20:36:48.929Z,42.95
2018-05-04T20:39:15.393Z,42.83
2018-05-04T20:41:41.853Z,43.31
2018-05-04T20:44:08.376Z,44.36
2018-05-04T20:46:34.921Z,44.63
2018-05-04T20:49:01.389Z,45.48
2018-05-04T20:51:27.860Z,45.59
2018-05-04T20:53:54.372Z,45.35
2018-05-04T20:56:20.824Z,45.00
2018-05-04T20:58:47.477Z,44.96
2018-05-04T21:01:13.940Z,45.28
2018-05-04T21:03:40.451Z,45.17
2018-05-04T21:06:07.023Z,45.38
2018-05-04T21:08:33.538Z,45.61
2018-05-04T21:11:00.176Z,46.60
2018-05-04T21:13:26.664Z,47.62
2018-05-04T21:15:53.152Z,48.07
2018-05-04T21:18:19.657Z,48.38
2018-05-04T21:20:46.217Z,48.61
2018-05-04T21:23:12.733Z,48.85
2018-05-04T21:25:39.329Z,48.97
2018-05-04T21:28:05.878Z,49.28
2018-05-04T21:30:32.349Z,49.52
2018-05-04T21:32:58.832Z,49.55
2018-05-04T21:35:25.233Z,50.02
2018-05-04T21:37:51.783Z,50.36
2018-05-04T21:40:18.242Z,51.04
2018-05-04T21:42:44.773Z,51.51
2018-05-04T21:45:11.520Z,51.70
2018-05-04T21:47:37.960Z,51.84
2018-05-04T21:50:04.460Z,52.42
2018-05-04T21:52:30.914Z,52.29
2018-05-04T21:54:57.425Z,52.55
2018-05-04T21:57:23.933Z,52.83
2018-05-04T21:59:50.504Z,52.81
2018-05-04T22:02:17.152Z,52.49
2018-05-04T22:04:43.623Z,52.19
2018-05-04T22:07:10.134Z,51.90
2018-05-04T22:09:36.778Z,51.83
2018-05-04T22:12:03.180Z,51.71
2018-05-04T22:14:29.685Z,51.61
2018-05-04T22:16:56.185Z,51.60
2018-05-04T22:19:22.693Z,51.23
2018-05-04T22:21:49.220Z,51.27
2018-05-04T22:24:15.762Z,51.49
2018-05-04T22:26:42.334Z,51.53
2018-05-04T22:29:08.812Z,50.90
2018-05-04T22:31:35.256Z,50.89
2018-05-04T22:34:01.841Z,51.07
2018-05-04T22:36:28.361Z,51.10
2018-05-04T22:38:54.868Z,51.17
2018-05-04T22:41:21.300Z,51.68
2018-05-04T22:43:47.739Z,51.60
2018-05-04T22:46:14.285Z,52.61
2018-05-04T22:48:40.854Z,52.37
2018-05-04T22:51:07.414Z,53.00
2018-05-04T22:53:34.132Z,52.88
2018-05-04T22:56:00.600Z,53.04
2018-05-04T22:58:27.071Z,53.11
2018-05-04T23:00:53.616Z,53.32
2018-05-04T23:03:20.054Z,53.47
2018-05-04T23:05:46.667Z,53.57
2018-05-04T23:08:13.108Z,53.75
2018-05-04T23:10:39.872Z,53.71
2018-05-04T23:13:06.354Z,53.18
2018-05-04T23:15:32.865Z,53.90
2018-05-04T23:17:59.340Z,54.36
2018-05-04T23:20:25.887Z,54.10
2018-05-04T23:22:52.305Z,54.00
2018-05-04T23:25:18.821Z,54.29
2018-05-04T23:27:45.323Z,54.43
2018-05-04T23:30:11.737Z,54.38
2018-05-04T23:32:38.309Z,54.52
2018-05-04T23:35:04.788Z,54.77
2018-05-04T23:37:31.409Z,54.92
2018-05-04T23:39:57.904Z,55.07
2018-05-04T23:42:24.457Z,55.14
2018-05-04T23:44:51.117Z,55.25
2018-05-04T23:47:17.700Z,55.38
2018-05-04T23:49:44.142Z,55.59
2018-05-04T23:52:10.602Z,55.60
2018-05-04T23:54:37.156Z,55.88
2018-05-04T23:57:03.617Z,55.92
2018-05-04T23:59:30.177Z,55.82
